sensor_id;sensor_type;location;lat;lon;timestamp;P1;durP1;ratioP1;P2;durP2;ratioP2
29196;SDS011;62796;42.654;23.316;2024-03-08T00:01:47;16.15;;;10.50;;
29196;SDS011;62796;42.654;23.316;2024-03-08T00:04:13;17.88;;;11.27;;
29196;SDS011;62796;42.654;23.316;2024-03-08T00:06:40;14.00;;;8.82;;
29196;SDS011;62796;42.654;23.316;2024-03-08T00:09:05;12.73;;;8.80;;
29196;SDS011;62796;42.654;23.316;2024-03-08T00:11:33;13.73;;;8.88;;
29196;SDS011;62796;42.654;23.316;2024-03-08T00:14:01;13.38;;;8.65;;
29196;SDS011;62796;42.654;23.316;2024-03-08T00:16:27;9.57;;;6.97;;
29196;SDS011;62796;42.654;23.316;2024-03-08T00:18:52;12.07;;;7.55;;
29196;SDS011;62796;42.654;23.316;2024-03-08T00:21:18;10.82;;;6.32;;
29196;SDS011;62796;42.654;23.316;2024-03-08T00:23:43;10.18;;;6.63;;
29196;SDS011;62796;42.654;23.316;2024-03-08T00:26:08;8.85;;;6.07;;
29196;SDS011;62796;42.654;23.316;2024-03-08T00:28:34;11.18;;;6.93;;
29196;SDS011;62796;42.654;23.316;2024-03-08T00:31:00;8.93;;;6.13;;
29196;SDS011;62796;42.654;23.316;2024-03-08T00:33:26;8.98;;;5.75;;
29196;SDS011;62796;42.654;23.316;2024-03-08T00:35:52;8.52;;;5.75;;
29196;SDS011;62796;42.654;23.316;2024-03-08T00:38:18;8.77;;;5.40;;
29196;SDS011;62796;42.654;23.316;2024-03-08T00:40:44;7.75;;;5.22;;
29196;SDS011;62796;42.654;23.316;2024-03-08T00:43:09;7.70;;;5.40;;
29196;SDS011;62796;42.654;23.316;2024-03-08T00:45:35;8.15;;;4.78;;
29196;SDS011;62796;42.654;23.316;2024-03-08T00:48:02;7.25;;;5.25;;
29196;SDS011;62796;42.654;23.316;2024-03-08T00:50:28;6.78;;;5.22;;
29196;SDS011;62796;42.654;23.316;2024-03-08T00:52:53;6.50;;;4.57;;
29196;SDS011;62796;42.654;23.316;2024-03-08T00:55:19;11.35;;;4.30;;
29196;SDS011;62796;42.654;23.316;2024-03-08T00:57:45;5.50;;;3.67;;
29196;SDS011;62796;42.654;23.316;2024-03-08T01:00:10;3.75;;;2.83;;
29196;SDS011;62796;42.654;23.316;2024-03-08T01:02:37;2.97;;;2.60;;
29196;SDS011;62796;42.654;23.316;2024-03-08T01:05:04;3.67;;;2.58;;
29196;SDS011;62796;42.654;23.316;2024-03-08T01:07:32;2.55;;;2.22;;
29196;SDS011;62796;42.654;23.316;2024-03-08T01:09:58;3.72;;;2.33;;
29196;SDS011;62796;42.654;23.316;2024-03-08T01:12:24;3.03;;;2.28;;
29196;SDS011;62796;42.654;23.316;2024-03-08T01:14:49;3.97;;;2.38;;
29196;SDS011;62796;42.654;23.316;2024-03-08T01:17:15;4.10;;;2.38;;
29196;SDS011;62796;42.654;23.316;2024-03-08T01:19:40;3.28;;;2.53;;
29196;SDS011;62796;42.654;23.316;2024-03-08T01:22:05;3.35;;;2.28;;
29196;SDS011;62796;42.654;23.316;2024-03-08T01:24:31;3.88;;;2.63;;
29196;SDS011;62796;42.654;23.316;2024-03-08T01:26:56;4.35;;;2.85;;
29196;SDS011;62796;42.654;23.316;2024-03-08T01:29:22;3.55;;;2.42;;
29196;SDS011;62796;42.654;23.316;2024-03-08T01:31:47;4.75;;;2.33;;
29196;SDS011;62796;42.654;23.316;2024-03-08T01:34:13;4.15;;;2.45;;
29196;SDS011;62796;42.654;23.316;2024-03-08T01:36:38;2.85;;;2.25;;
29196;SDS011;62796;42.654;23.316;2024-03-08T01:39:03;3.47;;;2.65;;
29196;SDS011;62796;42.654;23.316;2024-03-08T01:41:33;4.07;;;2.63;;
29196;SDS011;62796;42.654;23.316;2024-03-08T01:43:59;3.50;;;2.70;;
29196;SDS011;62796;42.654;23.316;2024-03-08T01:46:24;3.53;;;2.50;;
29196;SDS011;62796;42.654;23.316;2024-03-08T01:48:50;4.05;;;2.92;;
29196;SDS011;62796;42.654;23.316;2024-03-08T01:51:15;3.42;;;2.88;;
29196;SDS011;62796;42.654;23.316;2024-03-08T01:53:42;3.95;;;2.78;;
29196;SDS011;62796;42.654;23.316;2024-03-08T01:56:10;3.25;;;2.53;;
29196;SDS011;62796;42.654;23.316;2024-03-08T01:58:38;3.60;;;2.60;;
29196;SDS011;62796;42.654;23.316;2024-03-08T02:01:08;2.97;;;2.40;;
29196;SDS011;62796;42.654;23.316;2024-03-08T02:03:38;3.25;;;2.50;;
29196;SDS011;62796;42.654;23.316;2024-03-08T02:06:03;3.22;;;2.40;;
29196;SDS011;62796;42.654;23.316;2024-03-08T02:08:30;3.60;;;2.55;;
29196;SDS011;62796;42.654;23.316;2024-03-08T02:10:56;2.60;;;2.20;;
29196;SDS011;62796;42.654;23.316;2024-03-08T02:13:22;2.47;;;2.28;;
29196;SDS011;62796;42.654;23.316;2024-03-08T02:18:16;2.28;;;2.08;;
29196;SDS011;62796;42.654;23.316;2024-03-08T02:20:42;3.33;;;2.40;;
29196;SDS011;62796;42.654;23.316;2024-03-08T02:23:08;2.53;;;2.20;;
29196;SDS011;62796;42.654;23.316;2024-03-08T02:25:34;2.30;;;1.95;;
29196;SDS011;62796;42.654;23.316;2024-03-08T02:28:00;2.40;;;2.20;;
29196;SDS011;62796;42.654;23.316;2024-03-08T02:30:26;2.20;;;2.00;;
29196;SDS011;62796;42.654;23.316;2024-03-08T02:32:54;2.15;;;1.95;;
29196;SDS011;62796;42.654;23.316;2024-03-08T02:35:20;3.30;;;2.42;;
29196;SDS011;62796;42.654;23.316;2024-03-08T02:37:46;2.95;;;2.60;;
29196;SDS011;62796;42.654;23.316;2024-03-08T02:40:12;3.20;;;2.13;;
29196;SDS011;62796;42.654;23.316;2024-03-08T02:42:38;2.50;;;2.30;;
29196;SDS011;62796;42.654;23.316;2024-03-08T02:45:04;4.45;;;2.42;;
29196;SDS011;62796;42.654;23.316;2024-03-08T02:47:30;2.58;;;2.20;;
29196;SDS011;62796;42.654;23.316;2024-03-08T02:49:56;3.65;;;2.35;;
29196;SDS011;62796;42.654;23.316;2024-03-08T02:52:22;2.85;;;2.50;;
29196;SDS011;62796;42.654;23.316;2024-03-08T02:54:47;3.10;;;2.78;;
29196;SDS011;62796;42.654;23.316;2024-03-08T02:57:13;3.60;;;2.42;;
29196;SDS011;62796;42.654;23.316;2024-03-08T02:59:40;1.98;;;1.80;;
29196;SDS011;62796;42.654;23.316;2024-03-08T03:02:05;1.42;;;1.30;;
29196;SDS011;62796;42.654;23.316;2024-03-08T03:04:31;1.50;;;1.20;;
29196;SDS011;62796;42.654;23.316;2024-03-08T03:07:00;2.40;;;1.00;;
29196;SDS011;62796;42.654;23.316;2024-03-08T03:09:25;0.90;;;0.90;;
29196;SDS011;62796;42.654;23.316;2024-03-08T03:11:55;1.60;;;0.80;;
29196;SDS011;62796;42.654;23.316;2024-03-08T03:14:21;1.00;;;0.80;;
29196;SDS011;62796;42.654;23.316;2024-03-08T03:16:47;1.20;;;0.90;;
29196;SDS011;62796;42.654;23.316;2024-03-08T03:19:12;2.15;;;1.80;;
29196;SDS011;62796;42.654;23.316;2024-03-08T03:21:38;1.65;;;1.55;;
29196;SDS011;62796;42.654;23.316;2024-03-08T03:24:03;1.75;;;1.40;;
29196;SDS011;62796;42.654;23.316;2024-03-08T03:26:35;1.23;;;1.00;;
29196;SDS011;62796;42.654;23.316;2024-03-08T03:29:06;1.05;;;0.90;;
29196;SDS011;62796;42.654;23.316;2024-03-08T03:31:33;1.00;;;0.90;;
29196;SDS011;62796;42.654;23.316;2024-03-08T03:33:59;1.50;;;1.40;;
29196;SDS011;62796;42.654;23.316;2024-03-08T03:36:27;2.50;;;1.30;;
29196;SDS011;62796;42.654;23.316;2024-03-08T03:38:56;1.52;;;1.38;;
29196;SDS011;62796;42.654;23.316;2024-03-08T03:41:30;1.80;;;1.23;;
29196;SDS011;62796;42.654;23.316;2024-03-08T03:43:56;1.10;;;1.00;;
29196;SDS011;62796;42.654;23.316;2024-03-08T03:46:21;1.65;;;1.25;;
29196;SDS011;62796;42.654;23.316;2024-03-08T03:48:47;1.40;;;1.30;;
29196;SDS011;62796;42.654;23.316;2024-03-08T03:51:12;2.78;;;1.30;;
29196;SDS011;62796;42.654;23.316;2024-03-08T03:53:40;3.67;;;2.13;;
29196;SDS011;62796;42.654;23.316;2024-03-08T03:56:06;3.85;;;2.58;;
29196;SDS011;62796;42.654;23.316;2024-03-08T03:58:32;3.55;;;2.38;;
29196;SDS011;62796;42.654;23.316;2024-03-08T04:00:58;2.63;;;1.95;;
29196;SDS011;62796;42.654;23.316;2024-03-08T04:03:23;6.03;;;2.08;;
29196;SDS011;62796;42.654;23.316;2024-03-08T04:05:49;2.22;;;1.88;;
29196;SDS011;62796;42.654;23.316;2024-03-08T04:08:14;2.13;;;1.73;;
29196;SDS011;62796;42.654;23.316;2024-03-08T04:10:40;1.95;;;1.65;;
29196;SDS011;62796;42.654;23.316;2024-03-08T04:13:08;2.58;;;1.90;;
29196;SDS011;62796;42.654;23.316;2024-03-08T04:15:37;1.98;;;1.67;;
29196;SDS011;62796;42.654;23.316;2024-03-08T04:18:03;2.25;;;1.80;;
29196;SDS011;62796;42.654;23.316;2024-03-08T04:20:29;1.42;;;1.17;;
29196;SDS011;62796;42.654;23.316;2024-03-08T04:22:55;1.85;;;1.75;;
29196;SDS011;62796;42.654;23.316;2024-03-08T04:25:21;1.58;;;1.48;;
29196;SDS011;62796;42.654;23.316;2024-03-08T04:27:46;1.70;;;1.33;;
29196;SDS011;62796;42.654;23.316;2024-03-08T04:30:13;1.73;;;1.50;;
29196;SDS011;62796;42.654;23.316;2024-03-08T04:32:39;1.75;;;1.55;;
29196;SDS011;62796;42.654;23.316;2024-03-08T04:35:06;1.98;;;1.58;;
29196;SDS011;62796;42.654;23.316;2024-03-08T04:37:32;1.90;;;1.58;;
29196;SDS011;62796;42.654;23.316;2024-03-08T04:39:57;2.30;;;1.63;;
29196;SDS011;62796;42.654;23.316;2024-03-08T04:42:23;5.05;;;1.90;;
29196;SDS011;62796;42.654;23.316;2024-03-08T04:44:50;2.63;;;1.73;;
29196;SDS011;62796;42.654;23.316;2024-03-08T04:47:15;2.53;;;2.03;;
29196;SDS011;62796;42.654;23.316;2024-03-08T04:49:43;3.38;;;2.40;;
29196;SDS011;62796;42.654;23.316;2024-03-08T04:52:08;4.72;;;2.08;;
29196;SDS011;62796;42.654;23.316;2024-03-08T04:54:34;3.90;;;2.20;;
29196;SDS011;62796;42.654;23.316;2024-03-08T04:56:59;2.42;;;2.20;;
29196;SDS011;62796;42.654;23.316;2024-03-08T04:59:25;3.58;;;2.80;;
29196;SDS011;62796;42.654;23.316;2024-03-08T05:01:52;4.72;;;2.80;;
29196;SDS011;62796;42.654;23.316;2024-03-08T05:04:17;3.95;;;3.15;;
29196;SDS011;62796;42.654;23.316;2024-03-08T05:06:43;8.25;;;4.85;;
29196;SDS011;62796;42.654;23.316;2024-03-08T05:09:08;25.98;;;12.50;;
29196;SDS011;62796;42.654;23.316;2024-03-08T05:11:43;32.78;;;16.80;;
29196;SDS011;62796;42.654;23.316;2024-03-08T05:14:09;9.35;;;5.28;;
29196;SDS011;62796;42.654;23.316;2024-03-08T05:16:35;5.40;;;3.80;;
29196;SDS011;62796;42.654;23.316;2024-03-08T05:19:01;6.55;;;3.80;;
29196;SDS011;62796;42.654;23.316;2024-03-08T05:21:27;5.57;;;3.67;;
29196;SDS011;62796;42.654;23.316;2024-03-08T05:23:53;6.43;;;3.58;;
29196;SDS011;62796;42.654;23.316;2024-03-08T05:26:19;5.18;;;3.28;;
29196;SDS011;62796;42.654;23.316;2024-03-08T05:28:45;4.28;;;3.15;;
29196;SDS011;62796;42.654;23.316;2024-03-08T05:31:17;3.30;;;2.88;;
29196;SDS011;62796;42.654;23.316;2024-03-08T05:33:49;3.45;;;2.80;;
29196;SDS011;62796;42.654;23.316;2024-03-08T05:36:15;3.67;;;2.90;;
29196;SDS011;62796;42.654;23.316;2024-03-08T05:38:42;5.20;;;3.42;;
29196;SDS011;62796;42.654;23.316;2024-03-08T05:41:08;7.20;;;5.00;;
29196;SDS011;62796;42.654;23.316;2024-03-08T05:43:34;7.30;;;4.78;;
29196;SDS011;62796;42.654;23.316;2024-03-08T05:46:00;6.90;;;3.30;;
29196;SDS011;62796;42.654;23.316;2024-03-08T05:48:25;8.98;;;6.53;;
29196;SDS011;62796;42.654;23.316;2024-03-08T05:50:51;14.27;;;7.60;;
29196;SDS011;62796;42.654;23.316;2024-03-08T05:53:16;9.27;;;5.68;;
29196;SDS011;62796;42.654;23.316;2024-03-08T05:55:41;6.50;;;4.72;;
29196;SDS011;62796;42.654;23.316;2024-03-08T05:58:07;4.43;;;3.10;;
29196;SDS011;62796;42.654;23.316;2024-03-08T06:00:33;4.13;;;3.22;;
29196;SDS011;62796;42.654;23.316;2024-03-08T06:02:59;3.78;;;3.00;;
29196;SDS011;62796;42.654;23.316;2024-03-08T06:05:25;4.45;;;3.45;;
29196;SDS011;62796;42.654;23.316;2024-03-08T06:07:50;6.38;;;3.70;;
29196;SDS011;62796;42.654;23.316;2024-03-08T06:10:18;4.45;;;3.42;;
29196;SDS011;62796;42.654;23.316;2024-03-08T06:12:44;6.90;;;3.80;;
29196;SDS011;62796;42.654;23.316;2024-03-08T06:15:10;6.53;;;4.50;;
29196;SDS011;62796;42.654;23.316;2024-03-08T06:17:39;8.50;;;5.38;;
29196;SDS011;62796;42.654;23.316;2024-03-08T06:20:05;10.55;;;6.93;;
29196;SDS011;62796;42.654;23.316;2024-03-08T06:22:36;10.63;;;7.00;;
29196;SDS011;62796;42.654;23.316;2024-03-08T06:25:03;12.02;;;7.40;;
29196;SDS011;62796;42.654;23.316;2024-03-08T06:27:28;11.88;;;7.63;;
29196;SDS011;62796;42.654;23.316;2024-03-08T06:29:54;13.93;;;8.60;;
29196;SDS011;62796;42.654;23.316;2024-03-08T06:32:19;13.73;;;8.75;;
29196;SDS011;62796;42.654;23.316;2024-03-08T06:34:44;15.02;;;8.55;;
29196;SDS011;62796;42.654;23.316;2024-03-08T06:37:10;11.30;;;7.47;;
29196;SDS011;62796;42.654;23.316;2024-03-08T06:39:35;15.00;;;8.70;;
29196;SDS011;62796;42.654;23.316;2024-03-08T06:42:01;14.88;;;8.70;;
29196;SDS011;62796;42.654;23.316;2024-03-08T06:44:26;14.25;;;8.75;;
29196;SDS011;62796;42.654;23.316;2024-03-08T06:46:52;11.93;;;7.75;;
29196;SDS011;62796;42.654;23.316;2024-03-08T06:49:17;12.75;;;8.88;;
29196;SDS011;62796;42.654;23.316;2024-03-08T06:51:43;13.07;;;8.70;;
29196;SDS011;62796;42.654;23.316;2024-03-08T06:54:08;12.15;;;7.97;;
29196;SDS011;62796;42.654;23.316;2024-03-08T06:56:36;11.43;;;8.07;;
29196;SDS011;62796;42.654;23.316;2024-03-08T06:59:02;13.65;;;7.95;;
29196;SDS011;62796;42.654;23.316;2024-03-08T07:01:28;12.40;;;7.97;;
29196;SDS011;62796;42.654;23.316;2024-03-08T07:03:57;11.77;;;7.90;;
29196;SDS011;62796;42.654;23.316;2024-03-08T07:06:22;12.35;;;7.63;;
29196;SDS011;62796;42.654;23.316;2024-03-08T07:08:48;11.57;;;7.53;;
29196;SDS011;62796;42.654;23.316;2024-03-08T07:11:13;12.05;;;7.32;;
29196;SDS011;62796;42.654;23.316;2024-03-08T07:13:43;14.10;;;7.90;;
29196;SDS011;62796;42.654;23.316;2024-03-08T07:16:10;11.73;;;8.10;;
29196;SDS011;62796;42.654;23.316;2024-03-08T07:18:37;14.63;;;8.98;;
29196;SDS011;62796;42.654;23.316;2024-03-08T07:21:05;11.77;;;8.05;;
29196;SDS011;62796;42.654;23.316;2024-03-08T07:23:30;11.82;;;6.72;;
29196;SDS011;62796;42.654;23.316;2024-03-08T07:26:14;17.90;;;10.25;;
29196;SDS011;62796;42.654;23.316;2024-03-08T07:28:40;23.27;;;11.98;;
29196;SDS011;62796;42.654;23.316;2024-03-08T07:31:06;16.70;;;8.73;;
29196;SDS011;62796;42.654;23.316;2024-03-08T07:33:46;15.38;;;8.70;;
29196;SDS011;62796;42.654;23.316;2024-03-08T07:36:11;11.07;;;6.63;;
29196;SDS011;62796;42.654;23.316;2024-03-08T07:38:37;9.85;;;6.40;;
29196;SDS011;62796;42.654;23.316;2024-03-08T07:41:02;10.45;;;7.43;;
29196;SDS011;62796;42.654;23.316;2024-03-08T07:43:28;11.20;;;6.28;;
29196;SDS011;62796;42.654;23.316;2024-03-08T07:45:54;11.10;;;6.63;;
29196;SDS011;62796;42.654;23.316;2024-03-08T07:48:20;10.02;;;6.47;;
29196;SDS011;62796;42.654;23.316;2024-03-08T07:50:46;12.38;;;6.78;;
29196;SDS011;62796;42.654;23.316;2024-03-08T07:53:11;9.75;;;6.97;;
29196;SDS011;62796;42.654;23.316;2024-03-08T07:55:37;10.20;;;6.78;;
29196;SDS011;62796;42.654;23.316;2024-03-08T07:58:02;8.82;;;6.53;;
29196;SDS011;62796;42.654;23.316;2024-03-08T08:00:31;11.00;;;6.38;;
29196;SDS011;62796;42.654;23.316;2024-03-08T08:02:57;11.73;;;6.65;;
29196;SDS011;62796;42.654;23.316;2024-03-08T08:05:22;12.93;;;7.50;;
29196;SDS011;62796;42.654;23.316;2024-03-08T08:07:48;9.85;;;6.65;;
29196;SDS011;62796;42.654;23.316;2024-03-08T08:10:14;13.52;;;7.20;;
29196;SDS011;62796;42.654;23.316;2024-03-08T08:12:46;21.10;;;11.48;;
29196;SDS011;62796;42.654;23.316;2024-03-08T08:15:13;14.13;;;8.20;;
29196;SDS011;62796;42.654;23.316;2024-03-08T08:17:40;13.23;;;7.63;;
29196;SDS011;62796;42.654;23.316;2024-03-08T08:20:07;11.88;;;7.72;;
29196;SDS011;62796;42.654;23.316;2024-03-08T08:22:33;10.20;;;5.95;;
29196;SDS011;62796;42.654;23.316;2024-03-08T08:24:59;16.95;;;7.70;;
29196;SDS011;62796;42.654;23.316;2024-03-08T08:27:24;16.40;;;8.32;;
29196;SDS011;62796;42.654;23.316;2024-03-08T08:29:51;18.88;;;7.50;;
29196;SDS011;62796;42.654;23.316;2024-03-08T08:32:16;27.65;;;7.50;;
29196;SDS011;62796;42.654;23.316;2024-03-08T08:34:43;15.48;;;7.05;;
29196;SDS011;62796;42.654;23.316;2024-03-08T08:37:09;11.15;;;7.10;;
29196;SDS011;62796;42.654;23.316;2024-03-08T08:39:35;18.98;;;8.02;;
29196;SDS011;62796;42.654;23.316;2024-03-08T08:42:00;15.07;;;8.30;;
29196;SDS011;62796;42.654;23.316;2024-03-08T08:44:27;21.60;;;8.27;;
29196;SDS011;62796;42.654;23.316;2024-03-08T08:46:53;16.90;;;7.90;;
29196;SDS011;62796;42.654;23.316;2024-03-08T08:49:18;12.90;;;7.70;;
29196;SDS011;62796;42.654;23.316;2024-03-08T08:51:49;10.60;;;6.70;;
29196;SDS011;62796;42.654;23.316;2024-03-08T08:54:15;11.10;;;6.35;;
29196;SDS011;62796;42.654;23.316;2024-03-08T08:56:42;9.73;;;6.60;;
29196;SDS011;62796;42.654;23.316;2024-03-08T08:59:09;12.10;;;7.43;;
29196;SDS011;62796;42.654;23.316;2024-03-08T09:01:38;9.25;;;6.60;;
29196;SDS011;62796;42.654;23.316;2024-03-08T09:04:04;16.17;;;8.13;;
29196;SDS011;62796;42.654;23.316;2024-03-08T09:06:30;12.50;;;6.88;;
29196;SDS011;62796;42.654;23.316;2024-03-08T09:08:56;11.85;;;7.30;;
29196;SDS011;62796;42.654;23.316;2024-03-08T09:11:22;7.55;;;5.93;;
29196;SDS011;62796;42.654;23.316;2024-03-08T09:13:49;8.10;;;6.30;;
29196;SDS011;62796;42.654;23.316;2024-03-08T09:16:14;14.55;;;6.60;;
29196;SDS011;62796;42.654;23.316;2024-03-08T09:18:41;10.80;;;6.70;;
29196;SDS011;62796;42.654;23.316;2024-03-08T09:21:06;12.90;;;6.68;;
29196;SDS011;62796;42.654;23.316;2024-03-08T09:23:35;9.15;;;6.03;;
29196;SDS011;62796;42.654;23.316;2024-03-08T09:26:03;8.82;;;5.10;;
29196;SDS011;62796;42.654;23.316;2024-03-08T09:28:29;11.25;;;5.57;;
29196;SDS011;62796;42.654;23.316;2024-03-08T09:30:54;8.00;;;5.72;;
29196;SDS011;62796;42.654;23.316;2024-03-08T09:33:20;5.97;;;4.82;;
29196;SDS011;62796;42.654;23.316;2024-03-08T09:35:46;9.13;;;5.15;;
29196;SDS011;62796;42.654;23.316;2024-03-08T09:38:16;16.05;;;5.68;;
29196;SDS011;62796;42.654;23.316;2024-03-08T09:40:41;7.10;;;4.88;;
29196;SDS011;62796;42.654;23.316;2024-03-08T09:43:07;8.55;;;5.22;;
29196;SDS011;62796;42.654;23.316;2024-03-08T09:45:35;18.75;;;6.03;;
29196;SDS011;62796;42.654;23.316;2024-03-08T09:48:04;20.40;;;7.05;;
29196;SDS011;62796;42.654;23.316;2024-03-08T09:50:30;10.45;;;6.70;;
29196;SDS011;62796;42.654;23.316;2024-03-08T09:52:57;12.55;;;6.20;;
29196;SDS011;62796;42.654;23.316;2024-03-08T09:55:23;12.10;;;5.97;;
29196;SDS011;62796;42.654;23.316;2024-03-08T09:57:51;14.90;;;6.13;;
29196;SDS011;62796;42.654;23.316;2024-03-08T10:00:36;30.02;;;7.65;;
29196;SDS011;62796;42.654;23.316;2024-03-08T10:03:02;5.78;;;3.42;;
29196;SDS011;62796;42.654;23.316;2024-03-08T10:05:28;4.38;;;3.20;;
29196;SDS011;62796;42.654;23.316;2024-03-08T10:07:55;6.32;;;3.60;;
29196;SDS011;62796;42.654;23.316;2024-03-08T10:10:20;6.07;;;3.80;;
29196;SDS011;62796;42.654;23.316;2024-03-08T10:12:46;4.18;;;3.35;;
29196;SDS011;62796;42.654;23.316;2024-03-08T10:15:15;4.68;;;3.30;;
29196;SDS011;62796;42.654;23.316;2024-03-08T10:17:41;4.35;;;3.00;;
29196;SDS011;62796;42.654;23.316;2024-03-08T10:20:17;3.30;;;2.83;;
29196;SDS011;62796;42.654;23.316;2024-03-08T10:22:43;4.97;;;3.33;;
29196;SDS011;62796;42.654;23.316;2024-03-08T10:25:12;5.03;;;3.55;;
29196;SDS011;62796;42.654;23.316;2024-03-08T10:27:38;10.50;;;3.95;;
29196;SDS011;62796;42.654;23.316;2024-03-08T10:30:10;6.47;;;4.30;;
29196;SDS011;62796;42.654;23.316;2024-03-08T10:32:39;7.15;;;4.13;;
29196;SDS011;62796;42.654;23.316;2024-03-08T10:35:06;6.10;;;3.80;;
29196;SDS011;62796;42.654;23.316;2024-03-08T10:37:33;16.35;;;10.10;;
29196;SDS011;62796;42.654;23.316;2024-03-08T10:40:08;10.80;;;6.55;;
29196;SDS011;62796;42.654;23.316;2024-03-08T10:42:41;5.07;;;3.70;;
29196;SDS011;62796;42.654;23.316;2024-03-08T10:45:31;5.55;;;4.00;;
29196;SDS011;62796;42.654;23.316;2024-03-08T10:50:43;4.53;;;3.47;;
29196;SDS011;62796;42.654;23.316;2024-03-08T10:53:15;4.38;;;2.50;;
29196;SDS011;62796;42.654;23.316;2024-03-08T10:55:42;7.38;;;3.33;;
29196;SDS011;62796;42.654;23.316;2024-03-08T10:58:10;4.38;;;2.80;;
29196;SDS011;62796;42.654;23.316;2024-03-08T11:00:35;4.03;;;2.78;;
29196;SDS011;62796;42.654;23.316;2024-03-08T11:03:02;17.40;;;4.05;;
29196;SDS011;62796;42.654;23.316;2024-03-08T11:05:38;17.88;;;4.43;;
29196;SDS011;62796;42.654;23.316;2024-03-08T11:08:05;5.32;;;2.90;;
29196;SDS011;62796;42.654;23.316;2024-03-08T11:10:50;3.25;;;2.08;;
29196;SDS011;62796;42.654;23.316;2024-03-08T11:16:00;3.22;;;2.58;;
29196;SDS011;62796;42.654;23.316;2024-03-08T11:18:26;4.35;;;3.63;;
29196;SDS011;62796;42.654;23.316;2024-03-08T11:20:55;6.68;;;3.53;;
29196;SDS011;62796;42.654;23.316;2024-03-08T11:23:22;5.20;;;3.60;;
29196;SDS011;62796;42.654;23.316;2024-03-08T11:25:49;5.32;;;2.90;;
29196;SDS011;62796;42.654;23.316;2024-03-08T11:31:22;6.30;;;3.15;;
29196;SDS011;62796;42.654;23.316;2024-03-08T11:33:34;5.78;;;3.85;;
29196;SDS011;62796;42.654;23.316;2024-03-08T11:38:48;2.67;;;2.47;;
29196;SDS011;62796;42.654;23.316;2024-03-08T11:41:14;5.28;;;2.17;;
29196;SDS011;62796;42.654;23.316;2024-03-08T11:43:42;4.63;;;2.20;;
29196;SDS011;62796;42.654;23.316;2024-03-08T11:46:09;7.55;;;2.35;;
29196;SDS011;62796;42.654;23.316;2024-03-08T11:48:37;2.55;;;1.88;;
29196;SDS011;62796;42.654;23.316;2024-03-08T11:51:09;2.83;;;2.40;;
29196;SDS011;62796;42.654;23.316;2024-03-08T11:53:38;2.97;;;2.00;;
29196;SDS011;62796;42.654;23.316;2024-03-08T11:56:09;2.15;;;1.95;;
29196;SDS011;62796;42.654;23.316;2024-03-08T11:58:39;2.72;;;2.22;;
29196;SDS011;62796;42.654;23.316;2024-03-08T12:01:06;4.03;;;2.10;;
29196;SDS011;62796;42.654;23.316;2024-03-08T12:03:34;4.82;;;2.42;;
29196;SDS011;62796;42.654;23.316;2024-03-08T12:06:02;2.45;;;1.83;;
29196;SDS011;62796;42.654;23.316;2024-03-08T12:08:30;6.55;;;2.72;;
29196;SDS011;62796;42.654;23.316;2024-03-08T12:10:57;7.68;;;2.80;;
29196;SDS011;62796;42.654;23.316;2024-03-08T12:13:29;4.72;;;2.22;;
29196;SDS011;62796;42.654;23.316;2024-03-08T12:15:59;2.97;;;2.58;;
29196;SDS011;62796;42.654;23.316;2024-03-08T12:18:25;3.20;;;2.50;;
29196;SDS011;62796;42.654;23.316;2024-03-08T12:21:03;10.38;;;2.88;;
29196;SDS011;62796;42.654;23.316;2024-03-08T12:23:33;3.65;;;2.28;;
29196;SDS011;62796;42.654;23.316;2024-03-08T12:26:09;2.67;;;1.92;;
29196;SDS011;62796;42.654;23.316;2024-03-08T12:28:48;2.83;;;2.00;;
29196;SDS011;62796;42.654;23.316;2024-03-08T12:31:14;2.67;;;1.90;;
29196;SDS011;62796;42.654;23.316;2024-03-08T12:36:14;2.20;;;1.85;;
29196;SDS011;62796;42.654;23.316;2024-03-08T12:38:43;8.13;;;2.17;;
29196;SDS011;62796;42.654;23.316;2024-03-08T12:41:09;3.05;;;2.20;;
29196;SDS011;62796;42.654;23.316;2024-03-08T12:43:34;1.90;;;1.55;;
29196;SDS011;62796;42.654;23.316;2024-03-08T12:46:00;6.28;;;2.45;;
29196;SDS011;62796;42.654;23.316;2024-03-08T12:48:25;3.03;;;1.92;;
29196;SDS011;62796;42.654;23.316;2024-03-08T12:50:51;2.65;;;1.55;;
29196;SDS011;62796;42.654;23.316;2024-03-08T12:53:17;1.90;;;1.77;;
29196;SDS011;62796;42.654;23.316;2024-03-08T12:55:42;5.15;;;2.00;;
29196;SDS011;62796;42.654;23.316;2024-03-08T12:58:08;3.17;;;2.20;;
29196;SDS011;62796;42.654;23.316;2024-03-08T13:00:34;2.15;;;1.80;;
29196;SDS011;62796;42.654;23.316;2024-03-08T13:03:01;3.08;;;1.95;;
29196;SDS011;62796;42.654;23.316;2024-03-08T13:05:27;1.80;;;1.60;;
29196;SDS011;62796;42.654;23.316;2024-03-08T13:07:54;1.90;;;1.67;;
29196;SDS011;62796;42.654;23.316;2024-03-08T13:10:20;4.35;;;1.77;;
29196;SDS011;62796;42.654;23.316;2024-03-08T13:12:46;5.30;;;2.25;;
29196;SDS011;62796;42.654;23.316;2024-03-08T13:15:11;3.35;;;1.98;;
29196;SDS011;62796;42.654;23.316;2024-03-08T13:17:44;4.77;;;1.97;;
29196;SDS011;62796;42.654;23.316;2024-03-08T13:20:11;3.15;;;1.75;;
29196;SDS011;62796;42.654;23.316;2024-03-08T13:22:41;3.42;;;1.80;;
29196;SDS011;62796;42.654;23.316;2024-03-08T13:25:07;2.20;;;1.77;;
29196;SDS011;62796;42.654;23.316;2024-03-08T13:27:38;2.20;;;2.00;;
29196;SDS011;62796;42.654;23.316;2024-03-08T13:30:07;2.67;;;1.67;;
29196;SDS011;62796;42.654;23.316;2024-03-08T13:32:38;2.28;;;1.40;;
29196;SDS011;62796;42.654;23.316;2024-03-08T13:35:05;3.63;;;1.80;;
29196;SDS011;62796;42.654;23.316;2024-03-08T13:37:37;3.08;;;1.65;;
29196;SDS011;62796;42.654;23.316;2024-03-08T13:40:04;4.43;;;1.65;;
29196;SDS011;62796;42.654;23.316;2024-03-08T13:42:31;3.58;;;1.88;;
29196;SDS011;62796;42.654;23.316;2024-03-08T13:44:56;2.13;;;1.75;;
29196;SDS011;62796;42.654;23.316;2024-03-08T13:47:21;3.00;;;1.77;;
29196;SDS011;62796;42.654;23.316;2024-03-08T13:49:48;3.95;;;2.25;;
29196;SDS011;62796;42.654;23.316;2024-03-08T13:52:15;2.95;;;1.77;;
29196;SDS011;62796;42.654;23.316;2024-03-08T13:54:41;3.83;;;1.65;;
29196;SDS011;62796;42.654;23.316;2024-03-08T13:57:07;2.20;;;2.00;;
29196;SDS011;62796;42.654;23.316;2024-03-08T13:59:35;3.53;;;1.83;;
29196;SDS011;62796;42.654;23.316;2024-03-08T14:02:01;2.75;;;1.85;;
29196;SDS011;62796;42.654;23.316;2024-03-08T14:04:30;10.85;;;2.03;;
29196;SDS011;62796;42.654;23.316;2024-03-08T14:06:56;4.68;;;2.10;;
29196;SDS011;62796;42.654;23.316;2024-03-08T14:09:24;8.75;;;2.20;;
29196;SDS011;62796;42.654;23.316;2024-03-08T14:11:51;2.95;;;2.08;;
29196;SDS011;62796;42.654;23.316;2024-03-08T14:14:23;5.45;;;1.73;;
29196;SDS011;62796;42.654;23.316;2024-03-08T14:16:48;2.63;;;2.10;;
29196;SDS011;62796;42.654;23.316;2024-03-08T14:19:17;3.42;;;1.83;;
29196;SDS011;62796;42.654;23.316;2024-03-08T14:21:43;3.88;;;1.98;;
29196;SDS011;62796;42.654;23.316;2024-03-08T14:24:09;2.60;;;1.67;;
29196;SDS011;62796;42.654;23.316;2024-03-08T14:26:35;4.20;;;2.03;;
29196;SDS011;62796;42.654;23.316;2024-03-08T14:29:03;3.80;;;2.10;;
29196;SDS011;62796;42.654;23.316;2024-03-08T14:31:30;4.45;;;2.10;;
29196;SDS011;62796;42.654;23.316;2024-03-08T14:33:55;8.50;;;2.35;;
29196;SDS011;62796;42.654;23.316;2024-03-08T14:36:22;4.88;;;2.47;;
29196;SDS011;62796;42.654;23.316;2024-03-08T14:38:50;4.95;;;2.25;;
29196;SDS011;62796;42.654;23.316;2024-03-08T14:41:16;5.05;;;2.58;;
29196;SDS011;62796;42.654;23.316;2024-03-08T14:43:44;5.85;;;2.90;;
29196;SDS011;62796;42.654;23.316;2024-03-08T14:46:18;6.38;;;2.70;;